Independence Township, Michigan
Current Conditions -  °F | °C
As of 1:53 PM on Wednesday 26 Nov 2014 (Local Time) from KPTK Reporting Station
Overcast Overcast  
Wind Chill: 26°   Ceiling: 3500
Heat Index: 32°   Visibility: 10mi
Dew Point: 20°   Wind: 7mph
Humidity: 61%   Direction: 80°E
Pressure: 30.08"   Gusts: NA
Location:  42.7676°N, 83.4033°W
Report Text: KPTK 261853Z 08006KT 10SM FEW026 OVC035 00/M07 A3008 RMK AO2 SLP198 T00001067
Loading
Personal Weather Stations






























Interactive Weather Map New forecast layout! Learn more

10-Day Weather Forecast

Advertisements
Track Severe Weather on mobile